createdAt,value
2022-10-10T00:01:45.752Z,55.57
2022-10-10T00:04:14.720Z,55.70
2022-10-10T00:06:43.576Z,55.50
2022-10-10T00:09:12.326Z,55.13
2022-10-10T00:11:41.110Z,55.58
2022-10-10T00:14:09.961Z,54.97
2022-10-10T00:16:39.804Z,55.06
2022-10-10T00:19:08.785Z,55.15
2022-10-10T00:21:37.638Z,55.07
2022-10-10T00:24:07.080Z,55.48
2022-10-10T00:26:35.896Z,55.34
2022-10-10T00:29:04.659Z,55.35
2022-10-10T00:31:33.510Z,54.83
2022-10-10T00:34:02.527Z,54.34
2022-10-10T00:36:31.834Z,54.47
2022-10-10T00:39:00.694Z,54.53
2022-10-10T00:41:29.950Z,54.04
2022-10-10T00:44:08.314Z,54.06
2022-10-10T00:46:37.296Z,53.79
2022-10-10T00:49:10.771Z,54.45
2022-10-10T00:51:41.724Z,53.77
2022-10-10T00:54:13.917Z,53.40
2022-10-10T00:56:52.070Z,53.99
2022-10-10T00:59:22.110Z,53.64
2022-10-10T01:01:51.631Z,53.75
2022-10-10T01:04:49.961Z,53.55
2022-10-10T01:07:24.323Z,53.34
2022-10-10T01:09:57.518Z,53.52
2022-10-10T01:12:31.662Z,53.82
2022-10-10T01:15:33.863Z,53.39
2022-10-10T01:18:19.420Z,53.22
2022-10-10T01:21:00.721Z,53.10
2022-10-10T01:23:53.817Z,52.94
2022-10-10T01:26:53.148Z,52.73
2022-10-10T01:29:32.147Z,52.18
2022-10-10T01:32:17.164Z,51.72
2022-10-10T01:34:56.989Z,50.95
2022-10-10T01:37:43.777Z,50.74
2022-10-10T01:40:49.139Z,49.76
2022-10-10T01:43:18.929Z,47.93
2022-10-10T01:45:53.166Z,47.94
2022-10-10T01:48:31.443Z,47.95
2022-10-10T01:51:03.235Z,47.92
2022-10-10T01:53:39.377Z,46.87
2022-10-10T01:56:24.582Z,45.93
2022-10-10T01:58:59.447Z,44.37
2022-10-10T02:01:55.529Z,43.66
2022-10-10T02:04:33.358Z,43.86
2022-10-10T02:07:22.382Z,44.04
2022-10-10T02:09:54.775Z,44.76
2022-10-10T02:12:24.771Z,45.23
2022-10-10T02:14:57.330Z,43.69
2022-10-10T02:17:28.003Z,42.97
2022-10-10T02:19:59.923Z,42.93
2022-10-10T02:22:30.747Z,41.46
2022-10-10T02:24:59.961Z,40.48
2022-10-10T02:27:28.810Z,40.08
2022-10-10T02:30:00.745Z,39.92
2022-10-10T02:32:35.720Z,39.57
2022-10-10T02:35:10.457Z,39.27
2022-10-10T02:37:40.716Z,39.71
2022-10-10T02:40:13.039Z,40.58
2022-10-10T02:42:42.938Z,40.86
2022-10-10T02:45:12.232Z,40.51
2022-10-10T02:47:41.056Z,40.25
2022-10-10T02:50:10.053Z,39.87
2022-10-10T02:52:39.056Z,39.38
2022-10-10T02:55:08.168Z,40.02
2022-10-10T02:57:36.998Z,40.36
2022-10-10T03:00:08.592Z,40.20
2022-10-10T03:02:38.157Z,40.44
2022-10-10T03:05:07.212Z,41.17
2022-10-10T03:07:36.013Z,41.30
2022-10-10T03:10:07.916Z,41.16
2022-10-10T03:12:36.727Z,40.63
2022-10-10T03:15:11.216Z,40.14
2022-10-10T03:17:41.091Z,39.48
2022-10-10T03:20:10.517Z,39.28
2022-10-10T03:22:40.790Z,39.36
2022-10-10T03:25:09.602Z,38.61
2022-10-10T03:27:39.364Z,37.33
2022-10-10T03:30:08.590Z,37.71
2022-10-10T03:32:37.388Z,37.91
2022-10-10T03:35:07.091Z,36.68
2022-10-10T03:37:36.219Z,37.14
2022-10-10T03:40:05.344Z,37.57
2022-10-10T03:42:34.875Z,38.41
2022-10-10T03:45:05.328Z,38.49
2022-10-10T03:47:34.211Z,38.72
2022-10-10T03:50:02.964Z,38.69
2022-10-10T03:52:32.027Z,38.43
2022-10-10T03:55:00.727Z,38.29
2022-10-10T03:57:31.079Z,38.83
2022-10-10T03:59:59.841Z,38.61
2022-10-10T04:02:29.308Z,37.71
2022-10-10T04:04:58.274Z,37.12
2022-10-10T04:07:27.135Z,35.61
2022-10-10T04:09:56.496Z,34.73
2022-10-10T04:12:25.537Z,34.09
2022-10-10T04:14:54.316Z,33.70
2022-10-10T04:17:23.712Z,32.60
2022-10-10T04:19:52.628Z,31.91
2022-10-10T04:22:21.804Z,30.65
2022-10-10T04:24:50.709Z,29.05
2022-10-10T04:27:19.612Z,28.04
2022-10-10T04:29:48.432Z,27.06
2022-10-10T04:32:17.218Z,27.28
2022-10-10T04:34:46.610Z,27.15
2022-10-10T04:37:15.406Z,25.46
2022-10-10T04:39:44.390Z,25.73
2022-10-10T04:42:13.253Z,25.49
2022-10-10T04:44:42.055Z,25.73
2022-10-10T04:47:11.861Z,25.85
2022-10-10T04:49:42.624Z,26.03
2022-10-10T04:52:12.817Z,25.78
2022-10-10T04:54:43.749Z,25.66
2022-10-10T04:57:12.620Z,26.02
2022-10-10T04:59:42.125Z,25.78
2022-10-10T05:02:11.329Z,25.36
2022-10-10T05:04:41.754Z,25.49
2022-10-10T05:07:10.607Z,25.29
2022-10-10T05:09:39.696Z,25.47
2022-10-10T05:12:08.548Z,25.01
2022-10-10T05:14:37.420Z,24.95
2022-10-10T05:17:06.202Z,24.34
2022-10-10T05:19:35.006Z,24.18
2022-10-10T05:22:04.004Z,23.88
2022-10-10T05:24:32.818Z,24.28
2022-10-10T05:27:01.552Z,22.32
2022-10-10T05:29:31.115Z,21.94
2022-10-10T05:31:59.883Z,21.61
2022-10-10T05:34:28.824Z,21.87
2022-10-10T05:36:58.591Z,21.78
2022-10-10T05:39:27.628Z,21.62
2022-10-10T05:41:57.572Z,21.31
2022-10-10T05:44:26.393Z,21.20
2022-10-10T05:46:55.212Z,21.00
2022-10-10T05:49:24.110Z,21.39
2022-10-10T05:51:52.922Z,21.32
2022-10-10T05:54:22.888Z,21.33
2022-10-10T05:56:51.774Z,21.91
2022-10-10T05:59:20.597Z,21.64
2022-10-10T06:01:50.373Z,21.91
2022-10-10T06:04:19.820Z,22.27
2022-10-10T06:06:52.459Z,21.40
2022-10-10T06:09:24.778Z,21.40
2022-10-10T06:11:54.094Z,21.65
2022-10-10T06:14:22.873Z,21.12
2022-10-10T06:16:52.423Z,20.60
2022-10-10T06:19:21.998Z,20.15
2022-10-10T06:21:50.791Z,20.91
2022-10-10T06:24:19.757Z,20.86
2022-10-10T06:26:51.319Z,21.13
2022-10-10T06:29:20.099Z,21.16
2022-10-10T06:31:49.310Z,20.78
2022-10-10T06:34:18.945Z,20.93
2022-10-10T06:36:51.710Z,20.72
2022-10-10T06:39:20.648Z,20.88
2022-10-10T06:41:52.461Z,21.33
2022-10-10T06:44:21.334Z,20.37
2022-10-10T06:46:50.195Z,20.45
2022-10-10T06:49:23.772Z,20.69
2022-10-10T06:51:52.749Z,20.95
2022-10-10T06:54:21.548Z,21.66
2022-10-10T06:56:50.455Z,21.03
2022-10-10T06:59:19.233Z,21.62
2022-10-10T07:01:48.445Z,21.92
2022-10-10T07:04:20.081Z,22.08
2022-10-10T07:06:49.114Z,22.37
2022-10-10T07:09:19.409Z,21.77
2022-10-10T07:11:48.278Z,22.90
2022-10-10T07:14:17.040Z,22.97
2022-10-10T07:16:45.890Z,24.00
2022-10-10T07:19:14.685Z,23.98
2022-10-10T07:21:43.553Z,24.11
2022-10-10T07:24:12.433Z,24.56
2022-10-10T07:26:41.310Z,25.12
2022-10-10T07:29:10.098Z,25.18
2022-10-10T07:31:38.950Z,25.19
2022-10-10T07:34:07.729Z,25.78
2022-10-10T07:36:36.679Z,26.28
2022-10-10T07:39:05.518Z,26.74
2022-10-10T07:41:34.477Z,27.36
2022-10-10T07:44:04.375Z,27.54
2022-10-10T07:46:34.015Z,27.69
2022-10-10T07:49:02.738Z,27.96
2022-10-10T07:51:31.661Z,28.42
2022-10-10T07:54:00.508Z,28.53
2022-10-10T07:56:29.581Z,29.09
2022-10-10T07:58:58.504Z,29.60
2022-10-10T08:01:28.218Z,30.06
2022-10-10T08:03:57.726Z,30.59
2022-10-10T08:06:26.515Z,31.07
2022-10-10T08:08:55.298Z,31.48
2022-10-10T08:11:24.263Z,31.62
2022-10-10T08:13:53.171Z,31.96
2022-10-10T08:16:22.183Z,32.24
2022-10-10T08:18:51.077Z,32.00
2022-10-10T08:21:19.953Z,32.09
2022-10-10T08:23:48.851Z,32.43
2022-10-10T08:26:20.594Z,32.74
2022-10-10T08:28:49.649Z,32.58
2022-10-10T08:31:20.856Z,33.09
2022-10-10T08:33:50.723Z,32.96
2022-10-10T08:36:22.148Z,32.95
2022-10-10T08:38:53.268Z,33.05
2022-10-10T08:41:43.186Z,33.04
2022-10-10T08:44:30.615Z,33.09
2022-10-10T08:47:02.259Z,33.08
2022-10-10T08:49:37.784Z,33.22
2022-10-10T08:52:09.441Z,33.44
2022-10-10T08:54:40.326Z,33.29
2022-10-10T08:57:23.527Z,33.71
2022-10-10T08:59:55.719Z,33.54
2022-10-10T09:02:53.551Z,33.69
2022-10-10T09:05:50.208Z,34.11
2022-10-10T09:08:57.239Z,33.95
2022-10-10T09:11:59.599Z,34.32
2022-10-10T09:14:47.155Z,34.64
2022-10-10T09:17:40.787Z,34.63
2022-10-10T09:20:18.823Z,34.80
2022-10-10T09:23:02.782Z,34.98
2022-10-10T09:25:40.850Z,34.99
2022-10-10T09:28:20.582Z,35.19
2022-10-10T09:30:55.550Z,35.20
2022-10-10T09:33:37.900Z,35.23
2022-10-10T09:36:13.721Z,35.62
2022-10-10T09:38:48.665Z,35.32
2022-10-10T09:41:21.303Z,35.46
2022-10-10T09:44:00.096Z,35.76
2022-10-10T09:46:29.291Z,35.82
2022-10-10T09:48:58.738Z,36.13
2022-10-10T09:51:27.516Z,36.26
2022-10-10T09:53:56.412Z,36.30
2022-10-10T09:56:39.294Z,36.38
2022-10-10T09:59:38.692Z,36.54
2022-10-10T10:02:23.387Z,36.69
2022-10-10T10:04:53.448Z,36.88
2022-10-10T10:07:32.506Z,36.98
2022-10-10T10:10:03.345Z,37.15
2022-10-10T10:12:40.882Z,37.18
2022-10-10T10:15:25.966Z,37.17
2022-10-10T10:18:17.430Z,37.35
2022-10-10T10:20:52.239Z,37.21
2022-10-10T10:23:36.794Z,37.18
2022-10-10T10:26:15.488Z,37.09
2022-10-10T10:28:45.275Z,37.16
2022-10-10T10:31:17.255Z,37.04
2022-10-10T10:34:15.783Z,37.04
2022-10-10T10:37:04.037Z,37.09
2022-10-10T10:40:14.626Z,37.08
2022-10-10T10:42:51.021Z,37.30
2022-10-10T10:45:43.118Z,36.99
2022-10-10T10:48:47.203Z,36.91
2022-10-10T10:51:31.038Z,37.11
2022-10-10T10:54:41.178Z,37.26
2022-10-10T10:58:22.491Z,37.09
2022-10-10T11:01:21.206Z,37.17
2022-10-10T11:05:21.175Z,37.01
2022-10-10T11:06:59.912Z,37.13
2022-10-10T11:09:50.151Z,37.13
2022-10-10T11:12:27.974Z,37.14
2022-10-10T11:15:03.937Z,37.12
2022-10-10T11:17:42.044Z,37.21
2022-10-10T11:20:21.644Z,37.17
2022-10-10T11:23:03.231Z,37.52
2022-10-10T11:25:55.775Z,37.14
2022-10-10T11:28:38.402Z,37.24
2022-10-10T11:31:22.103Z,37.25
2022-10-10T11:33:59.479Z,37.37
2022-10-10T11:36:35.695Z,37.51
2022-10-10T11:39:15.278Z,37.39
2022-10-10T11:42:12.235Z,37.51
2022-10-10T11:44:47.677Z,37.71
2022-10-10T11:47:30.309Z,37.59
2022-10-10T11:50:13.597Z,37.73
2022-10-10T11:53:16.201Z,37.72
2022-10-10T11:56:12.514Z,37.87
2022-10-10T11:58:49.611Z,37.88
2022-10-10T12:01:42.937Z,38.05
2022-10-10T12:04:11.912Z,38.24
2022-10-10T12:06:55.098Z,38.45
2022-10-10T12:09:38.043Z,38.26
2022-10-10T12:12:16.947Z,38.34
2022-10-10T12:14:54.504Z,38.61
2022-10-10T12:17:32.991Z,38.49
2022-10-10T12:20:22.570Z,38.42
2022-10-10T12:23:14.843Z,38.58
2022-10-10T12:25:46.946Z,38.84
2022-10-10T12:28:15.728Z,38.77
2022-10-10T12:30:57.910Z,38.99
2022-10-10T12:33:27.499Z,38.97
2022-10-10T12:35:57.821Z,39.00
2022-10-10T12:38:31.021Z,39.15
2022-10-10T12:41:16.241Z,39.31
2022-10-10T12:44:05.874Z,39.29
2022-10-10T12:46:35.651Z,39.74
2022-10-10T12:49:14.614Z,39.84
2022-10-10T12:51:45.191Z,39.98
2022-10-10T12:54:30.060Z,40.07
2022-10-10T12:57:15.509Z,40.23
2022-10-10T12:59:44.658Z,40.40
2022-10-10T13:02:23.126Z,40.52
2022-10-10T13:04:57.051Z,40.95
2022-10-10T13:07:26.780Z,41.14
2022-10-10T13:10:06.700Z,41.11
2022-10-10T13:12:35.867Z,40.98
2022-10-10T13:15:20.365Z,41.30
2022-10-10T13:17:49.162Z,41.44
2022-10-10T13:20:36.608Z,41.40
2022-10-10T13:23:14.701Z,41.35
2022-10-10T13:25:46.711Z,41.56
2022-10-10T13:28:21.091Z,41.77
2022-10-10T13:30:51.283Z,41.82
2022-10-10T13:33:23.177Z,41.73
2022-10-10T13:35:52.410Z,41.98
2022-10-10T13:38:25.998Z,42.23
2022-10-10T13:40:55.198Z,42.33
2022-10-10T13:43:24.163Z,42.81
2022-10-10T13:46:02.070Z,42.99
2022-10-10T13:48:36.919Z,43.32
2022-10-10T13:51:10.748Z,43.59
2022-10-10T13:53:42.796Z,43.85
2022-10-10T13:56:20.242Z,43.89
2022-10-10T13:58:56.053Z,44.21
2022-10-10T14:01:31.963Z,44.12
2022-10-10T14:04:41.849Z,44.38
2022-10-10T14:07:25.981Z,44.57
2022-10-10T14:09:58.554Z,45.55
2022-10-10T14:12:39.352Z,46.25
2022-10-10T14:15:34.412Z,47.07
2022-10-10T14:18:11.374Z,47.87
2022-10-10T14:20:40.216Z,48.69
2022-10-10T14:23:09.142Z,49.16
2022-10-10T14:25:40.363Z,49.19
2022-10-10T14:28:17.934Z,49.93
2022-10-10T14:30:46.874Z,50.18
2022-10-10T14:33:18.065Z,50.59
2022-10-10T14:35:49.027Z,51.26
2022-10-10T14:38:17.943Z,52.90
2022-10-10T14:40:49.953Z,52.69
2022-10-10T14:43:21.080Z,53.20
2022-10-10T14:45:54.248Z,53.36
2022-10-10T14:48:23.915Z,54.17
2022-10-10T14:50:52.857Z,54.41
2022-10-10T14:53:21.651Z,54.59
2022-10-10T14:55:55.276Z,54.69
2022-10-10T14:58:25.014Z,54.95
2022-10-10T15:00:55.194Z,55.72
2022-10-10T15:03:24.604Z,55.95
2022-10-10T15:05:53.481Z,56.49
2022-10-10T15:08:22.353Z,56.91
2022-10-10T15:10:51.367Z,56.97
2022-10-10T15:13:20.247Z,57.90
2022-10-10T15:15:50.039Z,57.74
2022-10-10T15:18:49.134Z,58.68
2022-10-10T15:21:13.017Z,59.06
2022-10-10T15:23:42.009Z,59.69
2022-10-10T15:26:11.553Z,59.52
2022-10-10T15:28:40.439Z,60.05
2022-10-10T15:31:09.237Z,60.70
2022-10-10T15:33:38.044Z,60.39
2022-10-10T15:36:10.892Z,60.32
2022-10-10T15:38:41.170Z,60.89
2022-10-10T15:41:11.302Z,60.39
2022-10-10T15:43:52.701Z,60.71
2022-10-10T15:46:27.143Z,61.65
2022-10-10T15:49:01.726Z,61.66
2022-10-10T15:51:31.964Z,61.27
2022-10-10T15:54:01.982Z,61.76
2022-10-10T15:56:34.008Z,62.23
2022-10-10T15:59:03.561Z,62.71
2022-10-10T16:01:33.324Z,62.58
2022-10-10T16:04:04.641Z,64.43
2022-10-10T16:06:34.222Z,65.28
2022-10-10T16:09:27.306Z,66.08
2022-10-10T16:11:52.044Z,66.32
2022-10-10T16:14:21.085Z,67.12
2022-10-10T16:16:50.227Z,67.53
2022-10-10T16:19:19.137Z,68.18
2022-10-10T16:21:47.889Z,68.85
2022-10-10T16:24:16.906Z,68.79
2022-10-10T16:26:45.634Z,69.41
2022-10-10T16:29:15.692Z,69.66
2022-10-10T16:31:44.508Z,69.91
2022-10-10T16:34:16.465Z,69.85
2022-10-10T16:36:45.594Z,70.56
2022-10-10T16:39:14.415Z,70.66
2022-10-10T16:41:48.450Z,70.70
2022-10-10T16:44:18.693Z,71.10
2022-10-10T16:46:47.566Z,70.96
2022-10-10T16:49:21.403Z,71.58
2022-10-10T16:51:50.941Z,70.86
2022-10-10T16:54:19.675Z,71.28
2022-10-10T16:56:48.460Z,71.75
2022-10-10T16:59:17.333Z,71.30
2022-10-10T17:01:47.741Z,71.72
2022-10-10T17:04:16.665Z,71.47
2022-10-10T17:06:47.738Z,71.55
2022-10-10T17:09:17.793Z,71.11
2022-10-10T17:11:51.033Z,71.39
2022-10-10T17:14:20.835Z,71.53
2022-10-10T17:19:38.443Z,71.46
2022-10-10T17:22:07.287Z,71.12
2022-10-10T17:24:36.634Z,71.11
2022-10-10T17:27:05.997Z,71.29
2022-10-10T17:29:35.130Z,71.13
2022-10-10T17:32:06.527Z,70.87
2022-10-10T17:34:36.763Z,70.57
2022-10-10T17:37:06.117Z,71.05
2022-10-10T17:39:34.854Z,70.64
2022-10-10T17:42:05.642Z,70.64
2022-10-10T17:44:40.306Z,70.55
2022-10-10T17:47:12.770Z,70.67
2022-10-10T17:49:46.953Z,70.69
2022-10-10T17:52:20.932Z,70.43
2022-10-10T17:54:50.703Z,70.45
2022-10-10T17:57:20.305Z,70.40
2022-10-10T17:59:49.464Z,70.67
2022-10-10T18:02:19.582Z,70.43
2022-10-10T18:04:48.686Z,70.39
2022-10-10T18:07:19.297Z,70.38
2022-10-10T18:09:52.181Z,70.67
2022-10-10T18:12:21.286Z,70.56
2022-10-10T18:14:50.076Z,70.28
2022-10-10T18:17:18.957Z,70.02
2022-10-10T18:19:48.039Z,70.07
2022-10-10T18:22:18.770Z,70.24
2022-10-10T18:24:47.859Z,70.20
2022-10-10T18:27:16.688Z,70.25
2022-10-10T18:29:45.796Z,70.06
2022-10-10T18:32:14.733Z,70.44
2022-10-10T18:34:43.758Z,70.41
2022-10-10T18:37:15.331Z,70.79
2022-10-10T18:39:44.215Z,70.43
2022-10-10T18:42:13.422Z,70.11
2022-10-10T18:44:42.471Z,70.15
2022-10-10T18:47:11.313Z,70.47
2022-10-10T18:49:40.064Z,70.61
2022-10-10T18:52:10.699Z,69.87
2022-10-10T18:54:40.340Z,70.43
2022-10-10T18:57:09.341Z,70.36
2022-10-10T18:59:38.316Z,70.06
2022-10-10T19:02:08.567Z,69.93
2022-10-10T19:04:37.445Z,70.02
2022-10-10T19:07:07.100Z,70.54
2022-10-10T19:09:36.365Z,70.12
2022-10-10T19:12:05.506Z,70.46
2022-10-10T19:14:34.343Z,70.39
2022-10-10T19:17:03.156Z,70.41
2022-10-10T19:19:32.088Z,70.43
2022-10-10T19:22:00.918Z,70.24
2022-10-10T19:24:29.869Z,70.72
2022-10-10T19:26:58.756Z,70.19
2022-10-10T19:29:28.388Z,70.76
2022-10-10T19:31:57.423Z,70.75
2022-10-10T19:34:26.424Z,70.24
2022-10-10T19:36:55.367Z,70.46
2022-10-10T19:39:24.250Z,70.32
2022-10-10T19:41:53.243Z,70.10
2022-10-10T19:44:22.112Z,69.69
2022-10-10T19:46:50.953Z,70.20
2022-10-10T19:49:19.807Z,70.42
2022-10-10T19:51:48.710Z,70.58
2022-10-10T19:54:17.452Z,70.74
2022-10-10T19:56:46.260Z,70.35
2022-10-10T19:59:15.437Z,70.30
2022-10-10T20:01:45.601Z,70.50
2022-10-10T20:04:16.432Z,70.56
2022-10-10T20:06:45.471Z,70.31
2022-10-10T20:09:14.413Z,70.29
2022-10-10T20:11:43.267Z,70.24
2022-10-10T20:14:12.125Z,70.23
2022-10-10T20:16:40.917Z,69.97
2022-10-10T20:19:09.700Z,69.59
2022-10-10T20:21:38.605Z,70.20
2022-10-10T20:24:10.481Z,69.71
2022-10-10T20:26:39.246Z,69.15
2022-10-10T20:29:08.746Z,69.37
2022-10-10T20:31:38.448Z,69.72
2022-10-10T20:34:08.147Z,69.07
2022-10-10T20:36:37.676Z,68.83
2022-10-10T20:39:13.025Z,69.23
2022-10-10T20:41:43.285Z,68.69
2022-10-10T20:44:15.623Z,68.90
2022-10-10T20:46:46.324Z,69.18
2022-10-10T20:49:20.917Z,69.50
2022-10-10T20:51:52.299Z,68.70
2022-10-10T20:54:23.367Z,69.21
2022-10-10T20:56:52.446Z,68.85
2022-10-10T20:59:23.129Z,69.17
2022-10-10T21:01:53.027Z,69.08
2022-10-10T21:04:22.042Z,69.03
2022-10-10T21:06:50.807Z,69.12
2022-10-10T21:09:19.708Z,68.79
2022-10-10T21:11:51.373Z,69.01
2022-10-10T21:14:20.196Z,69.03
2022-10-10T21:16:51.031Z,69.48
2022-10-10T21:19:19.833Z,68.67
2022-10-10T21:21:48.760Z,69.29
2022-10-10T21:24:17.687Z,68.55
2022-10-10T21:26:49.559Z,68.68
2022-10-10T21:29:18.452Z,69.22
2022-10-10T21:31:47.283Z,69.34
2022-10-10T21:34:19.760Z,69.15
2022-10-10T21:36:48.866Z,69.00
2022-10-10T21:39:17.761Z,68.80
2022-10-10T21:41:46.561Z,68.73
2022-10-10T21:44:16.447Z,68.46
2022-10-10T21:46:45.271Z,69.02
2022-10-10T21:49:14.116Z,68.99
2022-10-10T21:51:46.096Z,68.77
2022-10-10T21:54:15.478Z,68.52
2022-10-10T21:56:44.811Z,68.72
2022-10-10T21:59:13.600Z,68.94
2022-10-10T22:01:43.412Z,68.73
2022-10-10T22:04:12.482Z,68.84
2022-10-10T22:06:41.320Z,68.87
2022-10-10T22:09:10.352Z,69.15
2022-10-10T22:11:39.353Z,68.62
2022-10-10T22:14:08.358Z,68.49
2022-10-10T22:16:37.145Z,68.50
2022-10-10T22:19:06.153Z,68.95
2022-10-10T22:21:35.526Z,68.63
2022-10-10T22:24:07.905Z,68.54
2022-10-10T22:26:37.000Z,69.26
2022-10-10T22:29:06.195Z,69.15
2022-10-10T22:31:38.271Z,69.45
2022-10-10T22:34:07.766Z,68.90
2022-10-10T22:36:36.872Z,68.39
2022-10-10T22:39:06.307Z,68.16
2022-10-10T22:41:35.179Z,68.91
2022-10-10T22:44:04.467Z,69.13
2022-10-10T22:46:33.814Z,68.85
2022-10-10T22:49:02.737Z,68.66
2022-10-10T22:51:31.601Z,68.85
2022-10-10T22:54:00.529Z,68.88
2022-10-10T22:56:29.362Z,68.55
2022-10-10T22:58:58.360Z,68.72
2022-10-10T23:01:28.137Z,68.66
2022-10-10T23:04:00.530Z,68.95
2022-10-10T23:06:30.009Z,69.02
2022-10-10T23:08:58.902Z,68.88
2022-10-10T23:11:27.839Z,68.98
2022-10-10T23:13:56.614Z,68.77
2022-10-10T23:16:25.703Z,68.72
2022-10-10T23:18:54.591Z,68.81
2022-10-10T23:21:24.428Z,68.85
2022-10-10T23:23:53.267Z,69.05
2022-10-10T23:26:22.147Z,68.99
2022-10-10T23:28:51.907Z,68.85
2022-10-10T23:31:20.916Z,68.94
2022-10-10T23:33:49.693Z,68.87
2022-10-10T23:36:18.608Z,68.89
2022-10-10T23:38:47.478Z,68.79
2022-10-10T23:41:16.319Z,68.61
2022-10-10T23:43:45.286Z,68.83
2022-10-10T23:46:14.926Z,68.86
2022-10-10T23:48:44.191Z,68.73
2022-10-10T23:51:14.092Z,68.52
2022-10-10T23:53:42.962Z,68.13
2022-10-10T23:56:12.036Z,68.39
2022-10-10T23:58:40.869Z,68.42
